Hundvaag 1 weather for Sep 1992
Month no. 63
Obs.
Da.
Temp. Dew Point Precip. Wind
Speed
Wind gusts Cloud cover Press. Humidity Wind dir. Sunny OPT
01.09.1992 11,2   1,3             1  
02.09.1992 11,2   5,9                
03.09.1992 9,7   2,0                
04.09.1992 7,5   11,6             1  
05.09.1992 9,0   0,6             1  
06.09.1992 8,9   0,0             1  
07.09.1992 13,0   0,0                
08.09.1992 9,6   17,3             1  
09.09.1992 10,4   2,8                
10.09.1992 11,7   14,5                
11.09.1992 12,1   0,0             1  
12.09.1992 12,0   11,4                
13.09.1992 11,0   4,8                
14.09.1992 5,6   0,0             1  
15.09.1992 6,2   18,0             1  
16.09.1992 11,3   15,0                
17.09.1992 8,0   0,9             1  
18.09.1992 7,8   0,0             1  
19.09.1992 13,7   0,0             1  
20.09.1992 13,5   0,0                
21.09.1992 12,9   1,2                
22.09.1992 12,9   0,0                
23.09.1992 13,9   25,3                
24.09.1992 11,8   8,0                
25.09.1992 10,8   7,1                
26.09.1992 11,8   27,1                
27.09.1992 11,6   0,0             1  
28.09.1992 11,6   1,1                
29.09.1992 11,7   3,0                
30.09.1992 8,8   2,5                
                       
Avrg/Sum 10,7   181,5             12